createdAt,value
2023-01-07T00:00:49.268Z,99.90
2023-01-07T00:04:54.343Z,99.90
2023-01-07T00:08:59.553Z,99.90
2023-01-07T00:13:03.354Z,99.90
2023-01-07T00:17:06.907Z,99.90
2023-01-07T00:21:13.739Z,99.90
2023-01-07T00:25:17.163Z,99.90
2023-01-07T00:29:21.402Z,99.90
2023-01-07T00:33:28.326Z,99.90
2023-01-07T00:37:51.641Z,99.90
2023-01-07T00:42:12.726Z,99.90
2023-01-07T00:46:16.974Z,99.90
2023-01-07T00:50:20.675Z,99.90
2023-01-07T00:54:25.537Z,99.90
2023-01-07T00:58:29.035Z,99.90
2023-01-07T01:02:32.582Z,99.90
2023-01-07T01:06:37.069Z,99.90
2023-01-07T01:10:41.845Z,99.90
2023-01-07T01:14:45.494Z,99.90
2023-01-07T01:18:48.962Z,99.90
2023-01-07T01:22:52.264Z,99.90
2023-01-07T01:26:57.332Z,99.90
2023-01-07T01:31:00.939Z,99.90
2023-01-07T01:35:04.212Z,99.90
2023-01-07T01:39:07.554Z,99.90
2023-01-07T01:43:32.119Z,99.90
2023-01-07T01:47:38.927Z,99.90
2023-01-07T01:51:46.908Z,99.90
2023-01-07T01:55:53.184Z,99.90
2023-01-07T02:00:00.551Z,99.90
2023-01-07T02:04:08.973Z,99.90
2023-01-07T02:08:12.660Z,99.90
2023-01-07T02:12:22.553Z,99.90
2023-01-07T02:16:36.056Z,99.90
2023-01-07T02:20:58.231Z,99.90
2023-01-07T02:25:31.220Z,99.90
2023-01-07T02:30:05.347Z,99.90
2023-01-07T02:34:15.866Z,99.90
2023-01-07T02:38:28.788Z,99.90
2023-01-07T02:42:41.326Z,99.90
2023-01-07T02:46:48.664Z,99.90
2023-01-07T02:50:53.748Z,99.90
2023-01-07T02:55:01.098Z,99.90
2023-01-07T02:59:27.984Z,99.90
2023-01-07T03:03:42.820Z,99.90
2023-01-07T03:08:00.222Z,99.90
2023-01-07T03:12:10.788Z,99.90
2023-01-07T03:16:19.667Z,99.90
2023-01-07T03:20:26.088Z,99.90
2023-01-07T03:24:33.717Z,99.90
2023-01-07T03:28:41.611Z,99.90
2023-01-07T03:32:50.759Z,99.90
2023-01-07T03:36:58.641Z,99.90
2023-01-07T03:41:03.854Z,99.90
2023-01-07T03:45:09.919Z,99.90
2023-01-07T03:49:13.286Z,99.90
2023-01-07T03:53:16.510Z,99.90
2023-01-07T03:57:21.453Z,99.90
2023-01-07T04:01:24.843Z,99.90
2023-01-07T04:05:28.319Z,99.90
2023-01-07T04:09:31.841Z,99.90
2023-01-07T04:13:36.572Z,99.90
2023-01-07T04:17:39.992Z,99.90
2023-01-07T04:21:43.577Z,99.90
2023-01-07T04:25:48.813Z,99.90
2023-01-07T04:29:53.432Z,99.90
2023-01-07T04:33:56.936Z,99.90
2023-01-07T04:38:00.550Z,99.90
2023-01-07T04:42:04.038Z,99.90
2023-01-07T04:46:09.004Z,99.90
2023-01-07T04:50:12.385Z,99.90
2023-01-07T04:54:15.823Z,99.90
2023-01-07T04:58:19.215Z,99.90
2023-01-07T05:02:23.928Z,99.90
2023-01-07T05:06:28.395Z,99.90
2023-01-07T05:10:33.223Z,99.90
2023-01-07T05:14:36.581Z,99.90
2023-01-07T05:18:41.380Z,99.90
2023-01-07T05:22:45.106Z,99.90
2023-01-07T05:26:48.402Z,99.90
2023-01-07T05:30:51.750Z,99.90
2023-01-07T05:34:56.407Z,99.90
2023-01-07T05:38:59.888Z,99.90
2023-01-07T05:43:03.194Z,99.90
2023-01-07T05:47:06.597Z,99.90
2023-01-07T05:51:12.080Z,99.90
2023-01-07T05:55:15.468Z,99.90
2023-01-07T05:59:18.923Z,99.90
2023-01-07T06:03:22.606Z,99.90
2023-01-07T06:07:27.325Z,99.90
2023-01-07T06:11:30.775Z,99.90
2023-01-07T06:15:34.356Z,99.90
2023-01-07T06:19:38.139Z,99.90
2023-01-07T06:23:43.527Z,99.90
2023-01-07T06:27:47.234Z,99.90
2023-01-07T06:31:50.680Z,99.90
2023-01-07T06:35:53.980Z,99.90
2023-01-07T06:39:59.509Z,99.90
2023-01-07T06:44:02.834Z,99.90
2023-01-07T06:48:06.638Z,99.90
2023-01-07T06:52:10.288Z,99.90
2023-01-07T06:56:15.201Z,99.90
2023-01-07T07:00:18.994Z,99.90
2023-01-07T07:04:22.599Z,99.90
2023-01-07T07:08:25.963Z,99.90
2023-01-07T07:12:30.656Z,99.90
2023-01-07T07:16:36.218Z,99.90
2023-01-07T07:20:39.713Z,99.90
2023-01-07T07:24:43.069Z,99.90
2023-01-07T07:28:47.982Z,99.90
2023-01-07T07:32:51.217Z,99.90
2023-01-07T07:36:54.878Z,99.90
2023-01-07T07:40:58.407Z,99.90
2023-01-07T07:45:03.232Z,99.90
2023-01-07T07:49:07.155Z,99.90
2023-01-07T07:53:11.558Z,99.90
2023-01-07T07:57:14.822Z,99.90
2023-01-07T08:01:19.710Z,99.90
2023-01-07T08:05:29.488Z,99.90
2023-01-07T08:09:33.214Z,99.90
2023-01-07T08:13:36.541Z,99.90
2023-01-07T08:17:41.813Z,99.90
2023-01-07T08:21:45.227Z,99.90
2023-01-07T08:25:48.606Z,99.90
2023-01-07T08:29:51.929Z,99.90
2023-01-07T08:33:56.843Z,99.90
2023-01-07T08:38:05.181Z,99.90
2023-01-07T08:42:08.560Z,99.90
2023-01-07T08:46:12.141Z,99.90
2023-01-07T08:50:17.732Z,99.90
2023-01-07T08:54:22.216Z,99.90
2023-01-07T08:58:25.985Z,99.90
2023-01-07T09:02:29.456Z,99.90
2023-01-07T09:06:34.136Z,99.90
2023-01-07T09:10:37.802Z,99.90
2023-01-07T09:14:41.244Z,99.90
2023-01-07T09:18:44.536Z,99.90
2023-01-07T09:22:49.717Z,99.90
2023-01-07T09:26:53.008Z,99.90
2023-01-07T09:30:57.386Z,99.90
2023-01-07T09:35:00.720Z,99.90
2023-01-07T09:39:06.276Z,99.90
2023-01-07T09:43:16.026Z,99.90
2023-01-07T09:47:24.886Z,99.90
2023-01-07T09:51:33.621Z,99.90
2023-01-07T09:56:09.980Z,99.90
2023-01-07T10:00:11.526Z,99.90
2023-01-07T10:04:26.199Z,99.90
2023-01-07T10:08:38.656Z,99.90
2023-01-07T10:12:50.267Z,99.90
2023-01-07T10:16:59.656Z,99.90
2023-01-07T10:21:13.315Z,99.90
2023-01-07T10:25:19.996Z,99.90
2023-01-07T10:29:33.540Z,99.90
2023-01-07T10:33:36.827Z,99.90
2023-01-07T10:37:42.552Z,99.90
2023-01-07T10:41:57.691Z,99.90
2023-01-07T10:46:27.547Z,99.90
2023-01-07T10:50:49.890Z,99.90
2023-01-07T10:55:14.203Z,99.90
2023-01-07T10:59:21.249Z,99.90
2023-01-07T11:03:26.561Z,99.90
2023-01-07T11:07:43.564Z,99.90
2023-01-07T11:11:55.935Z,99.90
2023-01-07T11:26:42.862Z,99.90
2023-01-07T11:30:46.533Z,96.60
2023-01-07T11:34:59.221Z,94.90
2023-01-07T11:39:11.528Z,95.10
2023-01-07T11:43:25.308Z,94.70
2023-01-07T11:47:28.936Z,94.70
2023-01-07T11:51:41.472Z,94.80
2023-01-07T11:55:59.397Z,94.80
2023-01-07T12:00:19.799Z,94.60
2023-01-07T12:04:24.889Z,94.40
2023-01-07T12:08:28.455Z,94.20
2023-01-07T12:12:37.208Z,94.20
2023-01-07T12:16:43.024Z,94.40
2023-01-07T12:21:28.217Z,94.50
2023-01-07T12:25:41.588Z,93.90
2023-01-07T12:29:58.384Z,94.30
2023-01-07T12:34:12.235Z,94.60
2023-01-07T12:38:19.766Z,94.90
2023-01-07T12:42:28.145Z,94.80
2023-01-07T12:46:39.750Z,94.40
2023-01-07T12:50:50.000Z,93.40
2023-01-07T12:55:00.009Z,93.80
2023-01-07T12:59:47.163Z,93.90
2023-01-07T13:03:52.555Z,92.60
2023-01-07T13:08:04.386Z,92.60
2023-01-07T13:12:42.241Z,91.50
2023-01-07T13:16:46.576Z,90.10
2023-01-07T13:21:02.598Z,84.50
2023-01-07T13:25:26.182Z,83.50
2023-01-07T13:29:43.836Z,83.60
2023-01-07T13:33:54.258Z,86.90
2023-01-07T13:38:14.952Z,90.70
2023-01-07T13:42:35.173Z,91.70
2023-01-07T13:46:42.072Z,93.20
2023-01-07T13:50:56.499Z,94.30
2023-01-07T13:55:02.350Z,94.80
2023-01-07T13:59:30.118Z,96.00
2023-01-07T14:03:43.588Z,96.60
2023-01-07T14:07:48.206Z,97.30
2023-01-07T14:12:22.702Z,98.60
2023-01-07T14:16:32.783Z,99.60
2023-01-07T14:20:47.347Z,99.90
2023-01-07T14:25:18.074Z,99.90
2023-01-07T14:29:54.305Z,99.90
2023-01-07T14:34:05.556Z,99.90
2023-01-07T14:38:46.787Z,99.90
2023-01-07T14:42:50.542Z,99.90
2023-01-07T14:46:54.622Z,99.90
2023-01-07T14:51:25.043Z,99.90
2023-01-07T14:55:55.566Z,99.90
2023-01-07T15:00:25.598Z,99.90
2023-01-07T15:05:02.074Z,99.90
2023-01-07T15:09:29.489Z,99.90
2023-01-07T15:13:54.069Z,99.90
2023-01-07T15:17:58.023Z,99.90
2023-01-07T15:22:09.301Z,99.90
2023-01-07T15:26:21.187Z,99.90
2023-01-07T15:30:36.647Z,99.90
2023-01-07T15:34:41.064Z,99.90
2023-01-07T15:38:49.586Z,99.90
2023-01-07T15:42:58.819Z,99.90
2023-01-07T15:47:02.911Z,99.90
2023-01-07T15:51:16.938Z,99.90
2023-01-07T15:55:31.965Z,99.90
2023-01-07T15:59:39.348Z,99.90
2023-01-07T16:03:45.261Z,99.90
2023-01-07T16:07:53.686Z,99.90
2023-01-07T16:11:57.363Z,99.90
2023-01-07T16:16:11.753Z,99.90
2023-01-07T16:20:23.206Z,99.90
2023-01-07T16:24:27.277Z,99.90
2023-01-07T16:28:34.828Z,99.90
2023-01-07T16:32:39.931Z,99.90
2023-01-07T16:36:45.912Z,99.90
2023-01-07T16:40:49.872Z,99.90
2023-01-07T16:45:05.972Z,99.90
2023-01-07T16:49:32.246Z,99.90
2023-01-07T16:53:35.773Z,99.90
2023-01-07T16:57:44.811Z,99.90
2023-01-07T17:01:49.073Z,99.90
2023-01-07T17:06:06.316Z,99.90
2023-01-07T17:10:21.880Z,99.90
2023-01-07T17:14:51.044Z,99.90
2023-01-07T17:18:55.974Z,99.90
2023-01-07T17:23:01.637Z,99.90
2023-01-07T17:27:12.391Z,99.90
2023-01-07T17:31:16.530Z,99.90
2023-01-07T17:35:23.051Z,99.90
2023-01-07T17:39:28.145Z,99.90
2023-01-07T17:43:35.357Z,99.90
2023-01-07T17:47:40.275Z,99.90
2023-01-07T17:51:46.979Z,99.90
2023-01-07T17:55:52.079Z,99.90
2023-01-07T17:59:55.751Z,99.90
2023-01-07T18:03:59.341Z,99.90
2023-01-07T18:08:03.075Z,99.90
2023-01-07T18:12:28.381Z,99.90
2023-01-07T18:16:32.096Z,99.90
2023-01-07T18:20:35.857Z,99.90
2023-01-07T18:24:39.561Z,99.90
2023-01-07T18:28:44.639Z,99.90
2023-01-07T18:32:48.956Z,99.90
2023-01-07T18:36:54.535Z,99.90
2023-01-07T18:40:58.283Z,99.90
2023-01-07T18:45:03.603Z,99.90
2023-01-07T18:49:07.283Z,99.90
2023-01-07T18:53:12.025Z,99.90
2023-01-07T18:57:16.251Z,99.90
2023-01-07T19:01:22.578Z,99.90
2023-01-07T19:05:26.532Z,99.90
2023-01-07T19:09:30.255Z,99.90
2023-01-07T19:13:33.951Z,99.90
2023-01-07T19:17:38.990Z,99.90
2023-01-07T19:21:43.896Z,99.90
2023-01-07T19:25:58.296Z,99.90
2023-01-07T19:30:02.322Z,99.90
2023-01-07T19:34:08.627Z,99.90
2023-01-07T19:38:13.711Z,99.90
2023-01-07T19:42:17.831Z,99.90
2023-01-07T19:46:21.592Z,99.90
2023-01-07T19:50:26.957Z,99.90
2023-01-07T19:54:30.612Z,99.90
2023-01-07T19:58:37.883Z,99.90
2023-01-07T20:02:41.744Z,99.90
2023-01-07T20:06:47.924Z,99.90
2023-01-07T20:10:58.012Z,99.90
2023-01-07T20:15:01.709Z,99.90
2023-01-07T20:19:06.546Z,99.90
2023-01-07T20:23:11.722Z,99.90
2023-01-07T20:27:15.414Z,99.90
2023-01-07T20:31:21.773Z,99.90
2023-01-07T20:35:25.612Z,99.90
2023-01-07T20:39:33.637Z,99.90
2023-01-07T20:43:39.745Z,99.90
2023-01-07T20:47:43.905Z,99.90
2023-01-07T20:51:48.673Z,99.90
2023-01-07T20:56:01.100Z,99.90
2023-01-07T21:00:04.948Z,99.90
2023-01-07T21:04:08.623Z,99.90
2023-01-07T21:08:12.281Z,99.90
2023-01-07T21:12:17.514Z,99.90
2023-01-07T21:16:21.206Z,99.90
2023-01-07T21:20:24.899Z,99.90
2023-01-07T21:24:28.476Z,99.90
2023-01-07T21:28:33.600Z,99.90
2023-01-07T21:32:37.163Z,99.90
2023-01-07T21:36:41.922Z,99.90
2023-01-07T21:40:45.447Z,99.90
2023-01-07T21:44:53.079Z,99.90
2023-01-07T21:48:57.690Z,99.90
2023-01-07T21:53:02.142Z,99.90
2023-01-07T21:57:06.003Z,99.90
2023-01-07T22:01:12.073Z,99.90
2023-01-07T22:05:16.164Z,99.90
2023-01-07T22:09:20.947Z,99.90
2023-01-07T22:13:25.611Z,99.90
2023-01-07T22:17:31.526Z,99.90
2023-01-07T22:21:35.956Z,99.90
2023-01-07T22:25:40.051Z,99.90
2023-01-07T22:29:51.436Z,99.90
2023-01-07T22:33:56.719Z,99.90
2023-01-07T22:38:02.114Z,99.90
2023-01-07T22:42:13.404Z,99.90
2023-01-07T22:46:20.975Z,99.90
2023-01-07T22:50:27.956Z,99.90
2023-01-07T22:54:33.516Z,99.90
2023-01-07T22:58:38.140Z,99.90
2023-01-07T23:02:41.752Z,99.90
2023-01-07T23:06:46.948Z,99.90
2023-01-07T23:10:50.624Z,99.90
2023-01-07T23:14:54.396Z,99.90
2023-01-07T23:18:58.290Z,99.90
2023-01-07T23:23:03.301Z,99.90
2023-01-07T23:27:06.921Z,99.90
2023-01-07T23:31:11.367Z,99.90
2023-01-07T23:35:15.232Z,99.90
2023-01-07T23:39:20.280Z,99.90
2023-01-07T23:43:23.870Z,99.90
2023-01-07T23:47:27.698Z,99.90
2023-01-07T23:51:31.205Z,99.90
2023-01-07T23:55:39.287Z,99.90
2023-01-07T23:59:43.959Z,99.90
